< < Back
Terminal Aerodrome Forecast


Current Version              Previous Versions:   1  2  3  4  5  6  7  8  9  

Terminal Aerodrome Forecast

337
FTUS42 KFFC 280520
TAFCSG
TAF
KCSG 280520Z 2806/2906 07005KT P6SM SKC
     FM280900 07005KT P6SM SCT015
     FM281200 08006KT P6SM BKN010
     FM281400 11008KT P6SM SCT020
     FM281700 12010KT P6SM BKN035
     FM282200 12008KT P6SM SCT045 SCT250
     FM290100 12005KT P6SM SCT045 SCT250=



Latest METAR

393
SAUS70 KWBC 281900 RRA
MTRCSG
METAR KCSG 281851Z 08008KT 10SM FEW035 SCT080 SCT100 31/21 A3005 RMK AO2
SLP170 T03060211


USA.gov is the U.S. government's official web portal to all federal, state and local government web resources and services.